createdAt,value
2023-02-18T00:01:02.444Z,28.80
2023-02-18T00:03:30.406Z,29.30
2023-02-18T00:05:57.609Z,29.80
2023-02-18T00:08:24.660Z,29.70
2023-02-18T00:10:52.305Z,29.50
2023-02-18T00:13:19.402Z,29.60
2023-02-18T00:15:47.319Z,29.20
2023-02-18T00:18:14.532Z,28.40
2023-02-18T00:20:41.630Z,28.30
2023-02-18T00:23:09.022Z,28.80
2023-02-18T00:25:36.083Z,29.30
2023-02-18T00:28:03.268Z,28.40
2023-02-18T00:30:30.525Z,28.40
2023-02-18T00:32:57.567Z,28.30
2023-02-18T00:35:24.561Z,27.90
2023-02-18T00:37:53.010Z,28.30
2023-02-18T00:40:20.653Z,29.80
2023-02-18T00:42:47.794Z,30.00
2023-02-18T00:45:15.369Z,29.70
2023-02-18T00:47:42.519Z,29.90
2023-02-18T00:50:11.304Z,28.70
2023-02-18T00:52:38.406Z,27.90
2023-02-18T00:55:06.138Z,27.70
2023-02-18T00:57:33.119Z,27.40
2023-02-18T01:00:00.204Z,28.70
2023-02-18T01:02:27.259Z,29.40
2023-02-18T01:04:54.464Z,28.80
2023-02-18T01:07:21.652Z,28.50
2023-02-18T01:09:48.697Z,28.90
2023-02-18T01:12:16.124Z,29.30
2023-02-18T01:14:43.437Z,29.00
2023-02-18T01:17:10.772Z,28.70
2023-02-18T01:19:37.814Z,29.20
2023-02-18T01:22:06.890Z,29.50
2023-02-18T01:24:34.094Z,29.30
2023-02-18T01:27:01.376Z,29.30
2023-02-18T01:29:28.504Z,29.10
2023-02-18T01:31:55.776Z,29.10
2023-02-18T01:34:22.969Z,29.80
2023-02-18T01:36:50.182Z,29.90
2023-02-18T01:39:17.193Z,29.40
2023-02-18T01:41:44.285Z,30.10
2023-02-18T01:44:24.649Z,30.30
2023-02-18T01:46:52.240Z,29.20
2023-02-18T01:49:33.140Z,28.80
2023-02-18T01:52:05.346Z,29.10
2023-02-18T01:54:40.093Z,29.50
2023-02-18T01:57:14.092Z,28.70
2023-02-18T01:59:54.269Z,29.60
2023-02-18T02:02:24.348Z,29.80
2023-02-18T02:04:51.382Z,29.80
2023-02-18T02:07:21.271Z,29.50
2023-02-18T02:09:51.193Z,29.30
2023-02-18T02:12:46.114Z,29.00
2023-02-18T02:15:26.324Z,29.00
2023-02-18T02:18:21.171Z,28.70
2023-02-18T02:21:27.279Z,28.90
2023-02-18T02:23:57.133Z,29.60
2023-02-18T02:26:58.606Z,29.20
2023-02-18T02:29:54.613Z,28.50
2023-02-18T02:33:03.396Z,27.90
2023-02-18T02:35:32.751Z,27.80
2023-02-18T02:38:14.389Z,28.00
2023-02-18T02:41:07.785Z,28.00
2023-02-18T02:43:48.962Z,28.00
2023-02-18T02:46:27.392Z,27.80
2023-02-18T02:49:16.722Z,27.90
2023-02-18T02:51:46.893Z,27.80
2023-02-18T02:54:18.623Z,27.60
2023-02-18T02:56:46.179Z,28.50
2023-02-18T02:59:25.606Z,28.60
2023-02-18T03:02:29.934Z,28.90
2023-02-18T03:05:34.431Z,29.40
2023-02-18T03:08:04.467Z,29.60
2023-02-18T03:11:01.407Z,29.00
2023-02-18T03:13:56.516Z,28.40
2023-02-18T03:16:46.092Z,28.90
2023-02-18T03:19:33.898Z,28.60
2023-02-18T03:22:18.556Z,28.90
2023-02-18T03:24:51.401Z,29.00
2023-02-18T03:27:27.359Z,29.20
2023-02-18T03:30:12.369Z,28.00
2023-02-18T03:32:39.420Z,28.30
2023-02-18T03:35:14.405Z,27.50
2023-02-18T03:38:12.063Z,27.10
2023-02-18T03:40:39.321Z,28.10
2023-02-18T03:43:06.319Z,28.50
2023-02-18T03:45:33.689Z,28.50
2023-02-18T03:48:00.898Z,28.40
2023-02-18T03:50:32.447Z,28.70
2023-02-18T03:52:59.522Z,28.70
2023-02-18T03:55:26.704Z,28.40
2023-02-18T03:57:54.120Z,28.60
2023-02-18T04:00:21.630Z,28.40
2023-02-18T04:02:48.760Z,28.50
2023-02-18T04:05:15.885Z,28.00
2023-02-18T04:07:42.989Z,27.10
2023-02-18T04:10:10.403Z,27.40
2023-02-18T04:12:37.399Z,27.50
2023-02-18T04:15:04.918Z,27.90
2023-02-18T04:17:33.925Z,28.20
2023-02-18T04:20:01.100Z,28.10
2023-02-18T04:22:28.269Z,27.60
2023-02-18T04:24:55.280Z,28.00
2023-02-18T04:27:22.358Z,28.80
2023-02-18T04:29:49.731Z,29.10
2023-02-18T04:32:16.769Z,29.20
2023-02-18T04:34:43.796Z,29.90
2023-02-18T04:37:10.907Z,29.50
2023-02-18T04:39:37.921Z,28.90
2023-02-18T04:42:10.355Z,28.10
2023-02-18T04:44:37.883Z,28.30
2023-02-18T04:47:06.338Z,28.30
2023-02-18T04:49:34.126Z,28.30
2023-02-18T04:52:01.413Z,27.90
2023-02-18T04:54:28.518Z,28.30
2023-02-18T04:56:55.644Z,28.70
2023-02-18T04:59:22.763Z,28.50
2023-02-18T05:01:50.250Z,28.10
2023-02-18T05:04:20.016Z,28.70
2023-02-18T05:06:47.247Z,28.40
2023-02-18T05:09:14.857Z,28.90
2023-02-18T05:11:42.719Z,28.90
2023-02-18T05:14:09.844Z,28.30
2023-02-18T05:16:37.079Z,28.00
2023-02-18T05:19:04.173Z,27.60
2023-02-18T05:21:31.587Z,28.00
2023-02-18T05:23:58.984Z,29.20
2023-02-18T05:26:26.156Z,28.60
2023-02-18T05:28:53.286Z,27.70
2023-02-18T05:31:20.378Z,26.80
2023-02-18T05:33:47.400Z,27.40
2023-02-18T05:36:14.470Z,27.40
2023-02-18T05:38:41.514Z,28.00
2023-02-18T05:41:08.608Z,28.50
2023-02-18T05:43:55.625Z,28.40
2023-02-18T05:46:23.478Z,28.10
2023-02-18T05:48:50.640Z,27.70
2023-02-18T05:51:17.732Z,28.40
2023-02-18T05:53:44.821Z,28.80
2023-02-18T05:56:11.992Z,29.50
2023-02-18T05:58:39.038Z,29.40
2023-02-18T06:01:06.057Z,28.60
2023-02-18T06:03:33.167Z,29.20
2023-02-18T06:06:00.288Z,28.40
2023-02-18T06:08:27.441Z,28.40
2023-02-18T06:10:55.013Z,28.10
2023-02-18T06:13:22.110Z,28.30
2023-02-18T06:15:52.223Z,27.70
2023-02-18T06:18:19.292Z,27.00
2023-02-18T06:20:48.242Z,26.20
2023-02-18T06:23:15.599Z,26.10
2023-02-18T06:25:42.921Z,26.60
2023-02-18T06:28:10.101Z,25.90
2023-02-18T06:30:37.217Z,25.30
2023-02-18T06:33:04.705Z,25.40
2023-02-18T06:35:31.895Z,25.80
2023-02-18T06:37:59.218Z,25.90
2023-02-18T06:40:26.237Z,25.40
2023-02-18T06:42:53.514Z,24.60
2023-02-18T06:45:21.097Z,25.50
2023-02-18T06:47:48.566Z,25.40
2023-02-18T06:50:15.891Z,24.90
2023-02-18T06:52:43.361Z,25.40
2023-02-18T06:55:11.083Z,26.40
2023-02-18T06:57:38.159Z,26.50
2023-02-18T07:00:06.606Z,27.00
2023-02-18T07:02:33.728Z,27.20
2023-02-18T07:05:00.853Z,26.00
2023-02-18T07:07:28.023Z,25.70
2023-02-18T07:09:55.026Z,25.60
2023-02-18T07:12:22.304Z,25.90
2023-02-18T07:14:49.598Z,26.00
2023-02-18T07:17:16.614Z,25.60
2023-02-18T07:19:43.624Z,26.10
2023-02-18T07:22:10.809Z,26.40
2023-02-18T07:24:37.909Z,26.50
2023-02-18T07:27:05.032Z,26.30
2023-02-18T07:29:32.088Z,27.10
2023-02-18T07:31:59.105Z,27.00
2023-02-18T07:34:26.242Z,26.60
2023-02-18T07:36:53.380Z,27.20
2023-02-18T07:39:21.017Z,27.80
2023-02-18T07:41:48.479Z,28.60
2023-02-18T07:44:15.671Z,29.20
2023-02-18T07:46:43.227Z,29.00
2023-02-18T07:49:11.269Z,29.80
2023-02-18T07:51:40.642Z,29.50
2023-02-18T07:54:07.745Z,29.40
2023-02-18T07:56:34.779Z,28.50
2023-02-18T07:59:02.447Z,28.10
2023-02-18T08:01:29.477Z,28.20
2023-02-18T08:03:56.530Z,28.60
2023-02-18T08:06:31.514Z,28.60
2023-02-18T08:08:58.541Z,28.80
2023-02-18T08:11:26.167Z,28.10
2023-02-18T08:13:53.293Z,28.60
2023-02-18T08:16:21.496Z,28.60
2023-02-18T08:18:50.075Z,28.30
2023-02-18T08:21:18.717Z,28.70
2023-02-18T08:23:46.134Z,28.60
2023-02-18T08:26:13.796Z,28.70
2023-02-18T08:28:41.089Z,29.50
2023-02-18T08:31:08.418Z,29.70
2023-02-18T08:33:35.480Z,29.40
2023-02-18T08:36:07.853Z,28.90
2023-02-18T08:38:35.074Z,29.20
2023-02-18T08:41:07.126Z,28.80
2023-02-18T08:43:34.675Z,28.70
2023-02-18T08:46:01.771Z,29.00
2023-02-18T08:48:30.281Z,29.70
2023-02-18T08:50:57.322Z,29.20
2023-02-18T08:53:24.378Z,28.50
2023-02-18T08:55:51.565Z,28.10
2023-02-18T08:58:18.749Z,29.20
2023-02-18T09:00:45.925Z,29.70
2023-02-18T09:03:14.921Z,29.30
2023-02-18T09:05:42.325Z,30.00
2023-02-18T09:08:09.378Z,30.50
2023-02-18T09:10:36.742Z,30.40
2023-02-18T09:13:04.952Z,30.00
2023-02-18T09:15:32.661Z,28.90
2023-02-18T09:17:59.974Z,28.50
2023-02-18T09:20:27.871Z,28.50
2023-02-18T09:22:56.099Z,28.10
2023-02-18T09:25:23.281Z,27.60
2023-02-18T09:27:51.492Z,27.70
2023-02-18T09:30:18.653Z,27.70
2023-02-18T09:32:45.734Z,27.20
2023-02-18T09:35:12.888Z,26.60
2023-02-18T09:37:41.358Z,26.70
2023-02-18T09:40:09.098Z,26.40
2023-02-18T09:42:36.306Z,26.40
2023-02-18T09:45:08.405Z,25.40
2023-02-18T09:47:38.861Z,25.80
2023-02-18T09:50:19.721Z,25.40
2023-02-18T09:52:47.140Z,24.90
2023-02-18T09:55:41.571Z,25.20
2023-02-18T09:58:21.128Z,24.80
2023-02-18T10:01:04.879Z,24.50
2023-02-18T10:03:32.656Z,23.50
2023-02-18T10:06:06.305Z,24.00
2023-02-18T10:08:49.207Z,24.50
2023-02-18T10:11:30.124Z,24.60
2023-02-18T10:14:02.782Z,24.80
2023-02-18T10:16:30.734Z,25.00
2023-02-18T10:19:05.311Z,25.00
2023-02-18T10:21:36.299Z,25.30
2023-02-18T10:24:29.961Z,24.60
2023-02-18T10:26:58.477Z,24.60
2023-02-18T10:29:26.188Z,25.20
2023-02-18T10:31:59.618Z,25.90
2023-02-18T10:34:50.412Z,26.40
2023-02-18T10:37:33.439Z,26.30
2023-02-18T10:40:41.213Z,26.00
2023-02-18T10:43:22.186Z,26.50
2023-02-18T10:46:20.103Z,26.40
2023-02-18T10:49:36.147Z,26.30
2023-02-18T10:52:06.968Z,26.30
2023-02-18T10:55:11.406Z,26.30
2023-02-18T10:57:53.280Z,27.60
2023-02-18T11:00:27.468Z,27.00
2023-02-18T11:03:17.694Z,26.30
2023-02-18T11:05:47.344Z,26.50
2023-02-18T11:08:21.875Z,27.00
2023-02-18T11:10:50.146Z,26.40
2023-02-18T11:13:26.299Z,26.40
2023-02-18T11:16:05.726Z,26.00
2023-02-18T11:18:45.559Z,25.90
2023-02-18T11:21:38.505Z,25.40
2023-02-18T11:24:17.670Z,26.00
2023-02-18T11:26:44.980Z,26.10
2023-02-18T11:29:24.394Z,25.80
2023-02-18T11:31:54.914Z,25.80
2023-02-18T11:34:27.522Z,27.40
2023-02-18T11:36:56.159Z,27.60
2023-02-18T11:39:28.342Z,28.10
2023-02-18T11:42:02.103Z,28.10
2023-02-18T11:44:36.315Z,27.90
2023-02-18T11:47:15.326Z,27.50
2023-02-18T11:49:46.240Z,27.60
2023-02-18T11:52:49.766Z,27.10
2023-02-18T11:55:26.020Z,27.40
2023-02-18T11:57:59.183Z,27.10
2023-02-18T12:00:40.424Z,27.00
2023-02-18T12:03:25.820Z,27.20
2023-02-18T12:05:53.837Z,27.00
2023-02-18T12:08:33.592Z,27.10
2023-02-18T12:11:11.687Z,26.70
2023-02-18T12:13:48.453Z,26.20
2023-02-18T12:16:40.088Z,27.40
2023-02-18T12:19:07.534Z,27.20
2023-02-18T12:22:01.893Z,27.20
2023-02-18T12:24:52.308Z,27.00
2023-02-18T12:27:30.024Z,27.30
2023-02-18T12:29:59.997Z,27.40
2023-02-18T12:32:43.916Z,26.80
2023-02-18T12:35:53.200Z,26.30
2023-02-18T12:38:50.575Z,26.50
2023-02-18T12:41:45.132Z,25.60
2023-02-18T12:44:31.645Z,25.00
2023-02-18T12:47:23.593Z,25.60
2023-02-18T12:50:14.302Z,26.80
2023-02-18T12:52:47.689Z,28.20
2023-02-18T12:55:56.028Z,29.20
2023-02-18T12:58:38.383Z,29.10
2023-02-18T13:01:22.285Z,29.30
2023-02-18T13:04:17.908Z,28.70
2023-02-18T13:07:22.374Z,28.60
2023-02-18T13:10:07.365Z,28.70
2023-02-18T13:13:01.653Z,27.80
2023-02-18T13:15:34.419Z,30.00
2023-02-18T13:18:05.082Z,29.20
2023-02-18T13:20:35.133Z,29.40
2023-02-18T13:23:03.766Z,28.90
2023-02-18T13:25:39.233Z,29.30
2023-02-18T13:28:29.257Z,29.40
2023-02-18T13:31:25.816Z,29.30
2023-02-18T13:34:05.138Z,28.60
2023-02-18T13:36:41.969Z,29.40
2023-02-18T13:39:20.301Z,29.00
2023-02-18T13:41:50.077Z,28.80
2023-02-18T13:44:23.028Z,28.50
2023-02-18T13:46:56.614Z,28.80
2023-02-18T13:49:35.047Z,29.50
2023-02-18T13:52:04.115Z,29.60
2023-02-18T13:54:46.606Z,29.30
2023-02-18T13:57:23.407Z,28.80
2023-02-18T13:59:59.956Z,28.70
2023-02-18T14:02:27.303Z,27.50
2023-02-18T14:05:14.476Z,28.10
2023-02-18T14:08:12.896Z,28.00
2023-02-18T14:10:40.471Z,27.70
2023-02-18T14:13:26.197Z,27.40
2023-02-18T14:15:56.515Z,27.70
2023-02-18T14:18:32.190Z,27.70
2023-02-18T14:21:20.866Z,27.40
2023-02-18T14:24:02.530Z,27.30
2023-02-18T14:26:34.240Z,27.20
2023-02-18T14:29:20.721Z,26.80
2023-02-18T14:31:51.495Z,26.80
2023-02-18T14:34:24.467Z,26.60
2023-02-18T14:37:00.668Z,25.70
2023-02-18T14:39:43.178Z,25.30
2023-02-18T14:42:41.217Z,25.70
2023-02-18T14:45:37.889Z,25.50
2023-02-18T14:48:43.621Z,25.50
2023-02-18T14:51:15.372Z,24.80
2023-02-18T14:53:45.154Z,24.90
2023-02-18T14:56:17.776Z,24.70
2023-02-18T14:58:54.526Z,24.90
2023-02-18T15:01:21.760Z,24.60
2023-02-18T15:03:52.595Z,25.00
2023-02-18T15:06:23.719Z,25.60
2023-02-18T15:08:50.601Z,26.70
2023-02-18T15:11:19.007Z,26.10
2023-02-18T15:13:46.861Z,25.50
2023-02-18T15:16:22.262Z,25.30
2023-02-18T15:18:56.055Z,25.10
2023-02-18T15:21:35.895Z,24.70
2023-02-18T15:24:19.111Z,25.30
2023-02-18T15:26:51.390Z,25.90
2023-02-18T15:29:22.021Z,25.60
2023-02-18T15:31:51.117Z,25.40
2023-02-18T15:34:31.776Z,26.00
2023-02-18T15:37:04.136Z,26.50
2023-02-18T15:39:32.804Z,26.60
2023-02-18T15:42:29.799Z,27.10
2023-02-18T15:45:02.253Z,26.80
2023-02-18T15:47:29.941Z,26.50
2023-02-18T15:50:03.145Z,25.60
2023-02-18T15:52:33.251Z,25.10
2023-02-18T15:55:12.221Z,25.30
2023-02-18T15:57:40.285Z,25.00
2023-02-18T16:00:16.995Z,25.60
2023-02-18T16:03:18.234Z,26.10
2023-02-18T16:05:45.235Z,26.40
2023-02-18T16:08:16.746Z,26.50
2023-02-18T16:11:03.145Z,26.60
2023-02-18T16:13:31.523Z,26.30
2023-02-18T16:16:01.091Z,25.90
2023-02-18T16:18:30.518Z,26.00
2023-02-18T16:21:06.599Z,25.80
2023-02-18T16:23:56.579Z,25.50
2023-02-18T16:26:43.650Z,25.60
2023-02-18T16:29:34.902Z,25.60
2023-02-18T16:32:01.878Z,25.70
2023-02-18T16:34:28.992Z,25.70
2023-02-18T16:37:14.681Z,26.10
2023-02-18T16:39:41.705Z,26.50
2023-02-18T16:42:12.357Z,26.50
2023-02-18T16:44:39.838Z,27.00
2023-02-18T16:47:08.342Z,27.20
2023-02-18T16:49:35.833Z,27.20
2023-02-18T16:52:08.179Z,26.30
2023-02-18T16:54:35.369Z,26.10
2023-02-18T16:57:02.458Z,26.00
2023-02-18T16:59:29.535Z,25.80
2023-02-18T17:01:56.635Z,26.00
2023-02-18T17:04:23.726Z,25.80
2023-02-18T17:06:51.136Z,25.20
2023-02-18T17:09:21.373Z,25.40
2023-02-18T17:11:54.265Z,25.90
2023-02-18T17:14:22.463Z,26.40
2023-02-18T17:16:54.085Z,26.30
2023-02-18T17:19:23.415Z,25.90
2023-02-18T17:21:50.921Z,25.40
2023-02-18T17:24:18.913Z,25.00
2023-02-18T17:26:46.096Z,24.80
2023-02-18T17:29:14.028Z,25.10
2023-02-18T17:31:47.539Z,25.20
2023-02-18T17:34:20.994Z,25.60
2023-02-18T17:36:48.537Z,26.00
2023-02-18T17:39:20.361Z,25.60
2023-02-18T17:41:48.802Z,25.80
2023-02-18T17:44:17.085Z,26.00
2023-02-18T17:46:44.725Z,26.00
2023-02-18T17:49:12.216Z,26.30
2023-02-18T17:51:39.790Z,26.20
2023-02-18T17:54:17.136Z,26.10
2023-02-18T17:56:44.624Z,25.30
2023-02-18T17:59:12.003Z,24.70
2023-02-18T18:01:39.967Z,24.40
2023-02-18T18:04:16.249Z,24.90
2023-02-18T18:06:44.202Z,25.20
2023-02-18T18:09:11.518Z,25.20
2023-02-18T18:11:39.012Z,25.20
2023-02-18T18:14:07.397Z,25.40
2023-02-18T18:16:34.585Z,25.10
2023-02-18T18:19:01.612Z,25.00
2023-02-18T18:21:34.771Z,25.10
2023-02-18T18:24:02.314Z,25.80
2023-02-18T18:26:31.065Z,26.20
2023-02-18T18:28:58.226Z,25.80
2023-02-18T18:31:25.532Z,25.30
2023-02-18T18:33:53.697Z,25.40
2023-02-18T18:36:24.358Z,25.90
2023-02-18T18:38:52.976Z,25.90
2023-02-18T18:41:22.550Z,25.60
2023-02-18T18:43:50.098Z,25.80
2023-02-18T18:46:17.998Z,25.80
2023-02-18T18:48:45.485Z,26.00
2023-02-18T18:51:21.481Z,26.20
2023-02-18T18:53:48.543Z,26.10
2023-02-18T18:56:15.715Z,25.80
2023-02-18T18:58:42.981Z,25.70
2023-02-18T19:01:19.625Z,25.70
2023-02-18T19:03:47.484Z,25.20
2023-02-18T19:06:16.207Z,25.80
2023-02-18T19:08:45.746Z,25.90
2023-02-18T19:11:16.144Z,25.70
2023-02-18T19:13:45.241Z,25.40
2023-02-18T19:16:26.770Z,25.70
2023-02-18T19:18:54.456Z,26.80
2023-02-18T19:21:21.944Z,27.10
2023-02-18T19:23:49.090Z,26.70
2023-02-18T19:26:16.962Z,26.70
2023-02-18T19:28:45.442Z,25.70
2023-02-18T19:31:13.157Z,25.90
2023-02-18T19:33:40.777Z,25.90
2023-02-18T19:36:10.593Z,26.00
2023-02-18T19:38:38.017Z,25.30
2023-02-18T19:41:13.608Z,25.20
2023-02-18T19:43:41.857Z,25.20
2023-02-18T19:46:14.461Z,25.80
2023-02-18T19:48:42.297Z,26.40
2023-02-18T19:51:10.583Z,26.00
2023-02-18T19:53:37.945Z,25.50
2023-02-18T19:56:08.615Z,25.50
2023-02-18T19:58:36.978Z,25.80
2023-02-18T20:01:04.974Z,25.60
2023-02-18T20:03:32.097Z,25.20
2023-02-18T20:05:59.191Z,25.10
2023-02-18T20:08:26.335Z,25.00
2023-02-18T20:10:59.740Z,25.10
2023-02-18T20:13:27.296Z,24.80
2023-02-18T20:15:54.624Z,24.90
2023-02-18T20:18:21.669Z,25.40
2023-02-18T20:20:50.194Z,25.90
2023-02-18T20:23:17.718Z,25.40
2023-02-18T20:25:47.609Z,26.20
2023-02-18T20:28:14.971Z,26.70
2023-02-18T20:30:42.813Z,26.30
2023-02-18T20:33:09.904Z,25.50
2023-02-18T20:35:37.032Z,24.70
2023-02-18T20:38:04.238Z,24.50
2023-02-18T20:40:31.324Z,24.60
2023-02-18T20:42:58.385Z,25.00
2023-02-18T20:45:26.724Z,24.80
2023-02-18T20:47:53.781Z,24.50
2023-02-18T20:50:21.892Z,24.50
2023-02-18T20:52:49.176Z,24.70
2023-02-18T20:55:16.506Z,24.70
2023-02-18T20:57:43.535Z,25.40
2023-02-18T21:00:11.958Z,25.80
2023-02-18T21:02:39.135Z,26.20
2023-02-18T21:05:06.533Z,26.00
2023-02-18T21:07:33.802Z,26.20
2023-02-18T21:10:01.086Z,26.30
2023-02-18T21:12:28.139Z,25.90
2023-02-18T21:14:55.256Z,26.10
2023-02-18T21:17:23.025Z,25.50
2023-02-18T21:19:50.078Z,26.10
2023-02-18T21:22:17.349Z,25.50
2023-02-18T21:24:45.077Z,24.90
2023-02-18T21:27:12.254Z,24.70
2023-02-18T21:29:39.352Z,25.00
2023-02-18T21:32:07.719Z,24.80
2023-02-18T21:34:34.793Z,25.10
2023-02-18T21:37:01.882Z,25.20
2023-02-18T21:39:28.964Z,26.20
2023-02-18T21:41:57.241Z,25.90
2023-02-18T21:44:30.046Z,25.90
2023-02-18T21:47:07.425Z,25.60
2023-02-18T21:49:34.572Z,25.90
2023-02-18T21:52:08.550Z,25.70
2023-02-18T21:54:44.938Z,25.60
2023-02-18T21:57:18.418Z,25.10
2023-02-18T21:59:46.009Z,25.30
2023-02-18T22:02:24.915Z,25.70
2023-02-18T22:04:53.017Z,26.40
2023-02-18T22:07:22.561Z,26.10
2023-02-18T22:09:50.772Z,25.50
2023-02-18T22:12:18.610Z,25.40
2023-02-18T22:14:45.685Z,24.90
2023-02-18T22:17:13.979Z,24.30
2023-02-18T22:19:41.194Z,24.30
2023-02-18T22:22:08.576Z,24.40
2023-02-18T22:24:35.958Z,24.40
2023-02-18T22:27:03.116Z,25.20
2023-02-18T22:29:32.104Z,25.00
2023-02-18T22:31:59.655Z,25.50
2023-02-18T22:34:27.582Z,25.70
2023-02-18T22:36:54.802Z,26.10
2023-02-18T22:39:21.865Z,26.40
2023-02-18T22:41:49.001Z,26.20
2023-02-18T22:44:18.104Z,26.00
2023-02-18T22:46:46.613Z,25.60
2023-02-18T22:49:13.899Z,25.00
2023-02-18T22:51:43.525Z,25.60
2023-02-18T22:54:16.016Z,25.60
2023-02-18T22:56:43.554Z,26.00
2023-02-18T22:59:12.795Z,26.00
2023-02-18T23:01:42.415Z,25.90
2023-02-18T23:04:10.986Z,25.10
2023-02-18T23:06:39.799Z,24.70
2023-02-18T23:09:08.948Z,24.70
2023-02-18T23:11:36.399Z,24.80
2023-02-18T23:14:18.546Z,24.90
2023-02-18T23:17:14.380Z,25.30
2023-02-18T23:19:42.857Z,25.60
2023-02-18T23:22:13.183Z,25.80
2023-02-18T23:24:42.382Z,25.40
2023-02-18T23:27:11.008Z,25.10
2023-02-18T23:29:38.596Z,25.00
2023-02-18T23:32:06.385Z,25.30
2023-02-18T23:34:33.758Z,25.40
2023-02-18T23:37:00.987Z,25.30
2023-02-18T23:39:29.547Z,26.00
2023-02-18T23:41:57.272Z,26.40
2023-02-18T23:44:25.960Z,26.60
2023-02-18T23:46:53.547Z,26.60
2023-02-18T23:49:23.130Z,26.50
2023-02-18T23:51:56.757Z,25.90
2023-02-18T23:54:24.264Z,25.00
2023-02-18T23:56:51.363Z,25.20
2023-02-18T23:59:18.679Z,25.70
